Bergem, Luxembourg
Current Conditions -  °F | °C
As of 3:20 PM on Saturday 25 Oct 2014 (Local Time) from ELLX Reporting Station
Broken Clouds Broken Clouds  
Wind Chill: 55°   Ceiling: 1500
Heat Index: 55°   Visibility: 6mi
Dew Point: 50°   Wind: 3mph
Humidity: 82%   Direction: NA
Pressure: 30.12"   Gusts: NA
Location:  49.53°N, 6.04°E
Report Text: ELLX 251320Z VRB03KT 9999 BKN015 13/10 Q1020 NOSIG
Loading
Personal Weather Stations






























Interactive Weather Map
Tropical Storm Tracking
New forecast layout! Learn more

10-Day Weather Forecast

Advertisements
Track Severe Weather on mobile